Time;durP1;ratioP1;P1;durP2;ratioP2;P2;SDS_P1;SDS_P2;PMS_P1;PMS_P2;Temp;Humidity;BMP_temperature;BMP_pressure;BME280_temperature;BME280_humidity;BME280_pressure;Samples;Min_cycle;Max_cycle;Signal;HPM_P1;HPM_P2
2023/10/29 00:02:25;;;;;;;6.40;1.65;;;;;;;18.12;52.64;97495.59;5094553;28;20126;-45
2023/10/29 00:04:51;;;;;;;2.47;1.30;;;;;;;18.43;51.86;97497.97;5094584;28;20051;-45
2023/10/29 00:07:16;;;;;;;2.63;1.10;;;;;;;18.52;51.05;97501.63;5094508;28;20394;-44
2023/10/29 00:09:42;;;;;;;4.72;1.80;;;;;;;18.48;49.61;97500.59;5094405;28;20390;-45
2023/10/29 00:12:08;;;;;;;2.05;1.00;;;;;;;18.33;49.93;97499.69;5094442;28;20024;-45
2023/10/29 00:14:34;;;;;;;2.70;1.20;;;;;;;18.15;50.38;97503.81;5094040;28;20098;-45
2023/10/29 00:16:59;;;;;;;3.78;1.50;;;;;;;17.95;50.90;97514.59;5094283;28;20588;-45
2023/10/29 00:19:25;;;;;;;3.65;0.95;;;;;;;17.87;51.08;97515.19;5092955;28;20048;-44
2023/10/29 00:21:51;;;;;;;3.17;0.95;;;;;;;17.65;51.38;97510.25;5094166;28;20028;-45
2023/10/29 00:24:17;;;;;;;3.35;1.10;;;;;;;17.44;51.81;97510.38;5094493;28;20413;-44
2023/10/29 00:26:42;;;;;;;5.78;1.08;;;;;;;17.25;52.33;97502.25;5094015;28;20032;-45
2023/10/29 00:29:08;;;;;;;3.00;1.30;;;;;;;17.20;52.94;97494.31;5094134;28;20027;-44
2023/10/29 00:31:34;;;;;;;5.18;2.00;;;;;;;17.23;53.40;97495.63;5094011;28;20028;-44
2023/10/29 00:34:00;;;;;;;5.82;1.27;;;;;;;17.50;52.77;97485.38;5094033;28;20038;-44
2023/10/29 00:36:25;;;;;;;2.88;1.30;;;;;;;17.37;52.13;97486.81;5093774;28;20074;-44
2023/10/29 00:38:51;;;;;;;7.85;1.27;;;;;;;17.16;52.95;97480.00;5092597;28;20020;-45
2023/10/29 00:41:17;;;;;;;4.15;1.02;;;;;;;17.09;53.06;97474.22;5093857;28;20031;-44
2023/10/29 00:43:43;;;;;;;2.70;0.95;;;;;;;16.96;53.59;97467.63;5093797;28;20016;-44
2023/10/29 00:46:11;;;;;;;3.88;0.77;;;;;;;16.84;54.08;97481.22;5093825;28;20486;-44
2023/10/29 00:48:37;;;;;;;6.63;1.05;;;;;;;16.78;54.48;97474.28;5092397;28;20054;-44
2023/10/29 00:51:03;;;;;;;17.17;1.98;;;;;;;16.76;54.87;97468.47;5093678;28;20573;-44
2023/10/29 00:53:30;;;;;;;4.60;1.38;;;;;;;16.77;54.88;97467.44;5093593;28;20069;-44
2023/10/29 00:55:57;;;;;;;5.75;1.20;;;;;;;16.79;54.84;97462.66;5093488;28;20398;-44
2023/10/29 00:58:24;;;;;;;3.40;1.20;;;;;;;16.71;55.14;97452.59;5093764;28;20401;-44
2023/10/29 01:00:50;;;;;;;3.53;0.80;;;;;;;16.70;55.58;97456.31;5092136;28;20020;-44
2023/10/29 01:03:18;;;;;;;3.30;1.00;;;;;;;16.64;55.59;97467.97;5093351;28;20025;-44
2023/10/29 01:05:45;;;;;;;4.10;1.05;;;;;;;16.63;55.85;97471.72;5093392;28;20506;-45
2023/10/29 01:08:11;;;;;;;3.55;1.20;;;;;;;16.55;55.96;97467.75;5091741;28;20028;-44
2023/10/29 01:10:38;;;;;;;3.78;1.05;;;;;;;16.55;56.33;97473.84;5093157;28;20535;-44
2023/10/29 01:13:04;;;;;;;4.68;1.42;;;;;;;16.59;56.10;97476.75;5092043;28;20507;-44
2023/10/29 01:15:30;;;;;;;3.53;1.00;;;;;;;16.58;56.33;97461.94;5091570;28;20501;-44
2023/10/29 01:17:56;;;;;;;2.92;1.17;;;;;;;16.57;56.49;97465.63;5093164;28;20066;-45
2023/10/29 01:20:22;;;;;;;4.57;1.35;;;;;;;16.67;56.66;97467.47;5093076;28;20020;-44
2023/10/29 01:22:48;;;;;;;5.75;1.10;;;;;;;16.66;56.49;97449.97;5093129;28;20044;-44
2023/10/29 01:25:14;;;;;;;3.65;0.98;;;;;;;16.69;56.32;97449.44;5091990;28;20060;-44
2023/10/29 01:27:40;;;;;;;2.50;0.60;;;;;;;16.77;56.28;97430.31;5092968;28;20017;-45
2023/10/29 01:30:06;;;;;;;2.30;0.65;;;;;;;16.91;56.06;97417.31;5091935;28;20055;-45
2023/10/29 01:32:32;;;;;;;3.63;1.05;;;;;;;17.00;55.53;97412.22;5092874;28;20028;-44
2023/10/29 01:34:58;;;;;;;4.47;0.68;;;;;;;17.13;54.96;97407.13;5091754;28;20391;-44
2023/10/29 01:37:24;;;;;;;5.13;0.90;;;;;;;17.25;55.00;97425.34;5092699;28;20046;-45
2023/10/29 01:39:50;;;;;;;3.05;1.13;;;;;;;17.35;54.47;97406.72;5093005;28;20063;-44
2023/10/29 01:42:16;;;;;;;2.70;0.70;;;;;;;17.46;54.12;97394.16;5092588;28;20508;-45
2023/10/29 01:44:42;;;;;;;2.47;0.90;;;;;;;17.50;53.64;97387.25;5092597;28;20093;-44
2023/10/29 01:47:08;;;;;;;1.60;0.80;;;;;;;17.48;53.66;97388.59;5092597;28;20020;-45
2023/10/29 01:49:34;;;;;;;4.78;1.00;;;;;;;17.47;53.96;97395.00;5091322;28;20561;-45
2023/10/29 01:51:59;;;;;;;4.50;0.90;;;;;;;17.66;53.48;97400.41;5092502;28;20116;-44
2023/10/29 01:54:26;;;;;;;2.72;1.00;;;;;;;17.74;52.72;97397.16;5092463;28;20028;-45
2023/10/29 01:56:52;;;;;;;2.75;0.73;;;;;;;17.82;52.64;97382.50;5091075;28;20020;-45
2023/10/29 01:59:18;;;;;;;3.53;0.85;;;;;;;17.85;52.36;97389.91;5092342;28;20065;-45
2023/10/29 02:01:44;;;;;;;2.63;0.70;;;;;;;17.84;52.17;97399.75;5092351;28;20028;-45
2023/10/29 02:04:10;;;;;;;4.18;1.13;;;;;;;17.83;52.23;97394.69;5091050;28;20106;-44
2023/10/29 02:06:39;;;;;;;1.38;0.82;;;;;;;17.76;52.45;97395.00;5092309;28;20606;-45
2023/10/29 02:09:09;;;;;;;1.45;0.50;;;;;;;17.87;52.08;97374.53;5091234;28;20035;-44
2023/10/29 02:11:37;;;;;;;1.67;0.60;;;;;;;17.94;51.90;97393.56;5092218;28;20019;-45
2023/10/29 02:14:04;;;;;;;3.45;1.23;;;;;;;17.95;51.85;97382.66;5091890;28;20040;-45
2023/10/29 02:16:29;;;;;;;3.72;0.70;;;;;;;17.93;51.77;97374.19;5090709;28;20107;-45
2023/10/29 02:18:55;;;;;;;4.18;1.08;;;;;;;17.97;52.38;97385.03;5090406;28;20146;-45
2023/10/29 02:21:22;;;;;;;1.27;0.65;;;;;;;18.24;51.51;97381.84;5091694;28;20024;-45
2023/10/29 02:23:48;;;;;;;2.17;0.77;;;;;;;18.33;50.67;97363.41;5092059;28;20024;-45
2023/10/29 02:26:14;;;;;;;2.58;0.82;;;;;;;18.27;50.86;97381.28;5091995;28;20024;-45
2023/10/29 02:28:40;;;;;;;3.63;0.90;;;;;;;18.20;51.09;97369.41;5091977;28;20034;-44
2023/10/29 02:31:05;;;;;;;1.98;0.90;;;;;;;18.17;51.28;97371.56;5090619;28;20016;-45
2023/10/29 02:33:31;;;;;;;1.60;0.77;;;;;;;18.20;50.81;97372.06;5090594;28;20040;-45
2023/10/29 02:35:57;;;;;;;3.05;0.70;;;;;;;18.23;50.63;97356.38;5091805;28;20100;-45
2023/10/29 02:38:23;;;;;;;4.35;1.48;;;;;;;18.16;50.90;97369.97;5091789;28;20448;-45
2023/10/29 02:40:49;;;;;;;2.72;1.00;;;;;;;18.14;50.90;97358.03;5091872;28;20024;-44
2023/10/29 02:43:16;;;;;;;1.52;0.70;;;;;;;18.12;51.05;97344.25;5091880;28;20071;-45
2023/10/29 02:45:42;;;;;;;1.20;0.45;;;;;;;18.14;50.73;97339.47;5091788;28;20059;-44
2023/10/29 02:48:08;;;;;;;2.95;1.02;;;;;;;18.13;51.17;97351.94;5091738;28;20111;-45
2023/10/29 02:50:37;;;;;;;5.40;0.80;;;;;;;18.20;50.40;97337.53;5090501;28;20592;-45
2023/10/29 02:53:03;;;;;;;1.73;0.70;;;;;;;18.35;49.80;97316.09;5073793;28;20543;-45
2023/10/29 02:55:29;;;;;;;1.95;0.65;;;;;;;18.45;49.26;97331.13;5090330;28;20110;-45
2023/10/29 02:57:54;;;;;;;1.75;0.68;;;;;;;18.45;49.47;97323.97;5091710;28;20024;-45
2023/10/29 03:00:20;;;;;;;2.90;0.70;;;;;;;18.45;49.26;97329.28;5091676;28;20020;-45
2023/10/29 03:02:46;;;;;;;2.00;0.65;;;;;;;18.38;49.54;97310.22;5091657;28;20054;-44
2023/10/29 03:05:12;;;;;;;2.30;0.40;;;;;;;18.44;49.22;97309.09;5091586;28;20073;-45
2023/10/29 03:07:38;;;;;;;2.17;0.70;;;;;;;18.51;49.11;97295.44;5090325;28;20118;-44
2023/10/29 03:10:04;;;;;;;4.40;0.70;;;;;;;18.50;49.14;97288.56;5091567;28;20042;-45
2023/10/29 03:12:30;;;;;;;2.67;0.90;;;;;;;18.49;49.12;97298.41;5091610;28;20489;-45
2023/10/29 03:14:56;;;;;;;4.78;0.60;;;;;;;18.51;49.03;97298.91;5091242;28;20047;-45
2023/10/29 03:17:22;;;;;;;2.90;0.43;;;;;;;18.59;48.97;97302.00;5091483;28;20190;-44
2023/10/29 03:19:48;;;;;;;4.25;0.73;;;;;;;18.55;48.91;97315.88;5091527;28;20375;-44
2023/10/29 03:22:14;;;;;;;3.45;0.63;;;;;;;18.59;48.72;97308.09;5091524;28;20021;-45
2023/10/29 03:24:39;;;;;;;1.80;0.60;;;;;;;18.51;48.90;97314.88;5090119;28;20039;-45
2023/10/29 03:27:06;;;;;;;2.17;0.70;;;;;;;18.43;49.01;97323.47;5091441;28;20020;-45
2023/10/29 03:29:32;;;;;;;3.10;0.65;;;;;;;18.48;48.71;97330.56;5091416;28;20032;-45
2023/10/29 03:31:57;;;;;;;2.35;0.77;;;;;;;18.44;49.03;97310.97;5092727;28;20035;-45
2023/10/29 03:34:23;;;;;;;2.65;0.75;;;;;;;18.50;48.78;97323.91;5093959;28;20030;-44
2023/10/29 03:36:49;;;;;;;3.90;0.73;;;;;;;18.42;48.87;97324.53;5095036;28;20024;-45
2023/10/29 03:39:16;;;;;;;5.07;0.80;;;;;;;18.48;48.47;97325.25;5093848;28;20024;-45
2023/10/29 03:41:42;;;;;;;1.00;0.60;;;;;;;18.36;48.88;97329.09;5094942;28;20077;-44
2023/10/29 03:44:08;;;;;;;1.83;0.70;;;;;;;18.34;49.19;97325.16;5095258;28;20027;-45
2023/10/29 03:46:33;;;;;;;0.35;0.22;;;;;;;18.44;48.80;97325.03;5094836;28;20854;-45
2023/10/29 03:48:59;;;;;;;1.40;0.52;;;;;;;18.60;48.33;97312.34;5093716;28;20028;-44
2023/10/29 03:51:28;;;;;;;4.40;0.60;;;;;;;18.52;48.45;97326.28;5093512;28;20021;-45
2023/10/29 03:53:54;;;;;;;2.17;0.60;;;;;;;18.54;48.15;97303.66;5094847;28;20583;-45
2023/10/29 03:56:20;;;;;;;4.10;0.70;;;;;;;18.54;48.31;97310.84;5093349;28;20040;-45
2023/10/29 03:58:46;;;;;;;1.40;0.68;;;;;;;18.51;48.46;97311.41;5094718;28;20051;-45
2023/10/29 04:01:16;;;;;;;3.38;0.50;;;;;;;18.58;48.25;97301.22;5093453;28;20551;-44
2023/10/29 04:03:46;;;;;;;3.47;0.65;;;;;;;18.61;48.25;97310.47;5076452;28;20024;-44
2023/10/29 04:06:11;;;;;;;1.05;0.50;;;;;;;18.69;47.96;97315.16;5093249;28;20031;-45
2023/10/29 04:08:38;;;;;;;5.43;1.20;;;;;;;18.69;47.84;97312.50;5094519;28;20405;-45
2023/10/29 04:11:04;;;;;;;3.00;0.82;;;;;;;18.64;48.22;97312.56;5093151;28;20016;-45
2023/10/29 04:13:31;;;;;;;2.95;0.80;;;;;;;18.56;48.26;97306.03;5092877;28;20048;-45
2023/10/29 04:15:57;;;;;;;3.92;0.65;;;;;;;18.59;48.32;97313.41;5093208;28;20026;-45
2023/10/29 04:18:27;;;;;;;1.60;0.47;;;;;;;18.55;48.34;97313.22;5094334;28;20099;-45
2023/10/29 04:20:54;;;;;;;3.58;0.82;;;;;;;18.55;48.45;97321.19;5094589;28;20023;-45
2023/10/29 04:23:20;;;;;;;2.05;0.47;;;;;;;18.54;48.66;97329.44;5092964;28;20021;-45
2023/10/29 04:25:45;;;;;;;1.52;0.70;;;;;;;18.65;48.21;97308.81;5092922;28;20058;-45
2023/10/29 04:28:11;;;;;;;5.22;1.25;;;;;;;18.59;48.50;97289.50;5094152;28;20028;-44
2023/10/29 04:30:37;;;;;;;2.75;0.80;;;;;;;18.76;47.64;97283.69;5092779;28;20417;-45
2023/10/29 04:33:03;;;;;;;1.50;0.43;;;;;;;18.81;47.49;97288.94;5092770;28;20020;-45
2023/10/29 04:35:31;;;;;;;2.10;0.68;;;;;;;18.72;47.90;97293.31;5094138;28;20428;-45
2023/10/29 04:37:57;;;;;;;2.58;1.08;;;;;;;18.72;47.85;97298.63;5093991;28;20020;-45
2023/10/29 04:40:23;;;;;;;2.97;0.80;;;;;;;18.57;48.26;97312.91;5092595;28;20031;-45
2023/10/29 04:42:49;;;;;;;2.67;0.90;;;;;;;18.52;48.56;97310.34;5091781;28;20035;-45
2023/10/29 04:45:15;;;;;;;3.10;1.25;;;;;;;18.44;48.67;97311.75;5093769;28;20035;-45
2023/10/29 04:47:40;;;;;;;3.28;0.65;;;;;;;18.45;48.94;97323.97;5093744;28;20043;-44
2023/10/29 04:50:06;;;;;;;5.68;1.08;;;;;;;18.56;48.73;97312.13;5093627;28;20517;-45
2023/10/29 04:52:33;;;;;;;3.00;0.60;;;;;;;18.61;48.59;97311.25;5093667;28;20432;-45
2023/10/29 04:55:01;;;;;;;2.25;0.77;;;;;;;18.62;48.38;97304.88;5092325;28;20024;-45
2023/10/29 04:57:30;;;;;;;3.42;0.70;;;;;;;18.67;48.26;97304.00;5093593;28;20024;-44
2023/10/29 04:59:56;;;;;;;1.13;0.60;;;;;;;18.62;48.28;97302.22;5093586;28;20106;-45
2023/10/29 05:02:22;;;;;;;1.50;0.50;;;;;;;18.56;48.54;97303.38;5092140;28;20024;-45
2023/10/29 05:04:51;;;;;;;3.90;0.80;;;;;;;18.56;48.88;97293.53;5092152;28;20472;-44
2023/10/29 05:07:17;;;;;;;2.03;0.80;;;;;;;18.56;48.69;97301.50;5075138;28;20090;-45
2023/10/29 05:09:43;;;;;;;4.07;0.90;;;;;;;18.61;48.14;97283.91;5092032;28;20035;-44
2023/10/29 05:12:10;;;;;;;2.58;0.75;;;;;;;18.58;48.46;97281.84;5093222;28;20100;-45
2023/10/29 05:14:36;;;;;;;4.15;0.70;;;;;;;18.50;48.89;97286.69;5092918;28;20090;-45
2023/10/29 05:17:02;;;;;;;2.00;0.50;;;;;;;18.46;48.58;97277.72;5091771;28;20039;-45
2023/10/29 05:19:28;;;;;;;4.35;0.70;;;;;;;18.34;48.98;97272.81;5093148;28;20099;-45
2023/10/29 05:21:53;;;;;;;6.65;1.05;;;;;;;18.29;49.38;97288.84;5091753;28;20035;-45
2023/10/29 05:24:20;;;;;;;2.58;0.70;;;;;;;18.34;49.12;97282.66;5093073;28;20024;-45
2023/10/29 05:26:47;;;;;;;13.65;3.70;;;;;;;18.38;49.00;97293.50;5092948;28;20036;-45
2023/10/29 05:29:12;;;;;;;2.60;0.75;;;;;;;18.44;49.17;97289.72;5091655;28;20512;-45
2023/10/29 05:31:38;;;;;;;2.40;0.70;;;;;;;18.52;48.33;97279.22;5092929;28;20020;-45
2023/10/29 05:34:05;;;;;;;4.45;0.80;;;;;;;18.55;48.60;97272.53;5093093;28;20020;-44
2023/10/29 05:36:31;;;;;;;3.55;0.50;;;;;;;18.67;48.48;97275.59;5092720;28;20024;-45
2023/10/29 05:38:57;;;;;;;3.50;0.63;;;;;;;18.73;47.97;97271.78;5091505;28;20260;-45
2023/10/29 05:41:23;;;;;;;2.10;0.55;;;;;;;18.72;47.81;97275.50;5092987;28;20039;-44
2023/10/29 05:43:49;;;;;;;3.53;0.60;;;;;;;18.74;47.65;97272.56;5092728;28;20016;-44
2023/10/29 05:46:15;;;;;;;1.05;0.35;;;;;;;18.77;47.46;97254.19;5092622;28;20031;-44
2023/10/29 05:48:41;;;;;;;3.03;0.52;;;;;;;18.72;47.72;97256.91;5091287;28;20039;-45
2023/10/29 05:51:12;;;;;;;4.03;1.60;;;;;;;18.71;47.91;97246.56;5091219;28;20024;-45
2023/10/29 05:53:39;;;;;;;6.07;0.90;;;;;;;18.67;48.01;97237.56;5092613;28;20031;-45
2023/10/29 05:56:06;;;;;;;2.63;0.70;;;;;;;18.86;47.33;97235.72;5091008;28;20043;-44
2023/10/29 05:58:32;;;;;;;4.78;1.17;;;;;;;18.87;47.29;97250.59;5091129;28;20075;-45
2023/10/29 06:00:58;;;;;;;2.88;0.90;;;;;;;18.85;47.63;97249.31;5092367;28;20024;-45
2023/10/29 06:03:24;;;;;;;1.00;0.45;;;;;;;18.93;47.03;97264.59;5092267;28;20475;-45
2023/10/29 06:05:51;;;;;;;3.40;0.63;;;;;;;18.86;47.39;97277.47;5092334;28;20032;-45
2023/10/29 06:08:17;;;;;;;2.05;0.73;;;;;;;18.85;47.71;97267.91;5092293;28;20027;-44
2023/10/29 06:10:43;;;;;;;1.73;0.80;;;;;;;18.91;47.74;97262.25;5090973;28;20032;-45
2023/10/29 06:13:09;;;;;;;1.80;0.85;;;;;;;18.87;47.49;97263.09;5092121;28;20024;-45
2023/10/29 06:15:35;;;;;;;3.03;0.60;;;;;;;18.76;48.08;97271.19;5090795;28;20405;-45
2023/10/29 06:18:03;;;;;;;4.60;1.00;;;;;;;18.74;48.61;97286.63;5092057;28;20031;-45
2023/10/29 06:20:29;;;;;;;2.85;0.75;;;;;;;18.90;48.45;97295.22;5092015;28;20052;-44
2023/10/29 06:22:55;;;;;;;4.70;0.93;;;;;;;19.09;47.67;97289.88;5090788;28;20024;-45
2023/10/29 06:25:21;;;;;;;3.58;0.63;;;;;;;19.08;47.72;97282.19;5092002;28;20405;-44
2023/10/29 06:27:47;;;;;;;5.20;0.90;;;;;;;19.06;47.71;97297.66;5073888;28;20020;-45
2023/10/29 06:30:12;;;;;;;3.95;0.98;;;;;;;18.93;47.91;97297.31;5090757;28;20020;-45
2023/10/29 06:32:38;;;;;;;3.08;1.00;;;;;;;18.86;48.20;97304.06;5090722;28;20063;-45
2023/10/29 06:35:04;;;;;;;6.72;1.13;;;;;;;18.84;48.11;97307.00;5090477;28;20024;-45
2023/10/29 06:37:30;;;;;;;2.42;0.68;;;;;;;18.93;47.96;97310.59;5091849;28;20099;-45
2023/10/29 06:39:56;;;;;;;2.72;0.70;;;;;;;18.91;47.90;97315.41;5090576;28;20446;-45
2023/10/29 06:42:22;;;;;;;3.97;0.90;;;;;;;18.92;48.26;97311.66;5091803;28;20525;-45
2023/10/29 06:44:48;;;;;;;2.92;0.70;;;;;;;19.04;48.12;97313.88;5091896;28;20104;-45
2023/10/29 06:47:17;;;;;;;2.75;0.80;;;;;;;19.06;47.90;97308.28;5091844;28;20477;-45
2023/10/29 06:49:43;;;;;;;3.17;0.80;;;;;;;19.08;48.03;97300.81;5090515;28;20024;-45
2023/10/29 06:52:10;;;;;;;2.75;0.80;;;;;;;19.16;47.43;97314.22;5091989;28;20074;-45
2023/10/29 06:54:35;;;;;;;4.65;0.80;;;;;;;19.16;47.68;97310.78;5091969;28;20034;-45
2023/10/29 06:57:02;;;;;;;3.88;0.75;;;;;;;19.18;47.92;97310.50;5090359;28;20028;-45
2023/10/29 06:59:33;;;;;;;3.85;0.85;;;;;;;19.25;47.56;97321.53;5091724;28;20107;-45
2023/10/29 07:01:59;;;;;;;3.17;1.00;;;;;;;19.34;47.58;97327.81;5092000;28;20030;-45
2023/10/29 07:04:25;;;;;;;3.05;0.88;;;;;;;19.33;47.61;97336.84;5091605;28;20097;-45
2023/10/29 07:06:51;;;;;;;3.80;0.80;;;;;;;19.27;47.71;97338.00;5092996;28;20028;-45
2023/10/29 07:09:18;;;;;;;3.70;0.90;;;;;;;19.40;47.62;97329.28;5095600;28;20074;-45
2023/10/29 07:11:45;;;;;;;5.65;1.00;;;;;;;19.84;47.09;97333.38;5095606;28;20028;-45
2023/10/29 07:14:11;;;;;;;6.53;1.95;;;;;;;20.45;46.48;97333.28;5094021;28;20082;-45
2023/10/29 07:16:43;;;;;;;4.68;0.95;;;;;;;20.99;44.45;97317.47;5095404;28;20036;-44
2023/10/29 07:19:12;;;;;;;4.18;0.80;;;;;;;21.35;43.82;97314.78;5095542;28;20025;-45
2023/10/29 07:21:38;;;;;;;4.00;1.55;;;;;;;21.47;43.30;97316.91;5094209;28;20095;-45
2023/10/29 07:24:05;;;;;;;3.47;1.00;;;;;;;21.34;43.42;97313.97;5094068;28;20031;-45
2023/10/29 07:26:34;;;;;;;5.60;1.00;;;;;;;21.25;43.26;97310.47;5095549;28;20028;-45
2023/10/29 07:29:03;;;;;;;2.85;1.00;;;;;;;21.20;43.57;97313.25;5095276;28;20012;-45
2023/10/29 07:31:30;;;;;;;4.50;1.00;;;;;;;21.17;43.03;97324.53;5095156;28;20532;-45
2023/10/29 07:33:55;;;;;;;2.28;0.47;;;;;;;21.18;42.63;97325.31;5093885;28;20546;-45
2023/10/29 07:36:22;;;;;;;2.35;0.80;;;;;;;21.02;43.36;97311.56;5094965;28;20028;-44
2023/10/29 07:38:48;;;;;;;1.48;0.80;;;;;;;20.99;43.25;97317.47;5093907;28;20075;-45
2023/10/29 07:41:20;;;;;;;2.63;0.75;;;;;;;20.94;43.09;97305.84;5095043;28;20489;-44
2023/10/29 07:43:47;;;;;;;3.00;0.70;;;;;;;20.94;43.01;97302.38;5095043;28;20024;-45
2023/10/29 07:46:12;;;;;;;7.68;1.00;;;;;;;20.93;43.56;97303.50;5094871;28;20047;-45
2023/10/29 07:48:38;;;;;;;5.97;1.50;;;;;;;21.01;42.56;97288.66;5093674;28;20408;-45
2023/10/29 07:51:04;;;;;;;3.58;0.65;;;;;;;21.04;42.86;97288.03;5093532;28;20081;-45
2023/10/29 07:53:32;;;;;;;2.25;0.80;;;;;;;21.08;42.69;97300.44;5093504;28;20074;-45
2023/10/29 07:56:12;;;;;;;1.42;0.60;;;;;;;21.01;42.79;97310.78;5094691;28;20550;-45
2023/10/29 07:58:38;;;;;;;1.75;1.10;;;;;;;20.88;43.14;97312.38;5094993;28;20426;-45
2023/10/29 08:01:15;;;;;;;5.10;0.65;;;;;;;20.87;43.27;97305.47;5093388;28;20460;-45
2023/10/29 08:03:42;;;;;;;5.22;1.00;;;;;;;20.75;43.28;97310.56;5093322;28;20498;-45
2023/10/29 08:06:09;;;;;;;5.25;0.80;;;;;;;20.74;43.47;97324.97;5093220;28;20024;-45
2023/10/29 08:08:35;;;;;;;2.42;0.85;;;;;;;20.60;43.73;97313.53;5094463;28;20453;-45
2023/10/29 08:11:01;;;;;;;4.15;0.80;;;;;;;20.53;44.05;97317.38;5094463;28;20093;-45
2023/10/29 08:13:27;;;;;;;3.42;1.83;;;;;;;20.53;44.58;97325.38;5094140;28;20494;-45
2023/10/29 08:15:53;;;;;;;3.17;1.00;;;;;;;20.65;43.96;97322.22;5094368;28;20024;-45
2023/10/29 08:18:18;;;;;;;3.88;0.98;;;;;;;20.64;43.98;97338.50;5093425;28;20028;-45
2023/10/29 08:20:44;;;;;;;1.98;0.88;;;;;;;20.69;44.21;97341.09;5094322;28;20115;-45
2023/10/29 08:23:12;;;;;;;4.93;1.02;;;;;;;20.85;43.87;97349.53;5094195;28;20035;-45
2023/10/29 08:25:38;;;;;;;13.50;1.65;;;;;;;20.90;43.43;97339.53;5094246;28;20132;-45
2023/10/29 08:28:07;;;;;;;13.63;1.33;;;;;;;20.90;43.23;97344.09;5094223;28;20034;-45
2023/10/29 08:30:33;;;;;;;4.90;0.93;;;;;;;20.87;43.73;97353.47;5094105;28;20025;-45
2023/10/29 08:32:58;;;;;;;4.30;0.80;;;;;;;20.92;43.19;97344.56;5094112;28;20016;-45
2023/10/29 08:35:24;;;;;;;4.80;1.00;;;;;;;20.88;43.07;97332.94;5075823;28;20016;-45
2023/10/29 08:37:50;;;;;;;3.25;0.77;;;;;;;20.84;42.96;97332.72;5092662;28;20032;-45
2023/10/29 08:40:16;;;;;;;2.67;0.50;;;;;;;20.83;42.86;97333.84;5093941;28;20567;-45
2023/10/29 08:42:42;;;;;;;3.30;0.80;;;;;;;20.81;43.48;97322.69;5093889;28;20028;-45
2023/10/29 08:45:09;;;;;;;3.47;0.98;;;;;;;20.84;43.37;97315.97;5093788;28;20560;-45
2023/10/29 08:47:35;;;;;;;2.30;0.75;;;;;;;20.90;43.13;97334.19;5094042;28;20024;-45
2023/10/29 08:50:00;;;;;;;3.33;0.93;;;;;;;20.96;43.31;97318.88;5092760;28;20508;-45
2023/10/29 08:52:26;;;;;;;4.03;0.70;;;;;;;21.17;43.35;97339.75;5094029;28;20115;-44
2023/10/29 08:54:52;;;;;;;3.33;0.90;;;;;;;21.27;42.38;97350.19;5092443;28;20012;-45
2023/10/29 08:57:19;;;;;;;8.88;1.25;;;;;;;21.29;42.85;97359.47;5075502;28;20461;-45
2023/10/29 08:59:44;;;;;;;2.60;0.85;;;;;;;21.37;42.68;97344.63;5093821;28;20458;-45
2023/10/29 09:02:10;;;;;;;2.53;1.02;;;;;;;21.47;42.29;97340.94;5093454;28;20020;-45
2023/10/29 09:04:39;;;;;;;5.28;1.27;;;;;;;21.86;42.50;97352.78;5093511;28;20512;-45
2023/10/29 09:07:05;;;;;;;3.15;1.02;;;;;;;22.19;41.86;97355.91;5093396;28;20028;-45
2023/10/29 09:09:31;;;;;;;6.47;1.20;;;;;;;22.32;41.77;97364.97;5093404;28;20032;-45
2023/10/29 09:11:58;;;;;;;2.42;0.90;;;;;;;22.47;41.60;97369.88;5092052;28;20023;-45
2023/10/29 09:14:23;;;;;;;3.28;0.88;;;;;;;22.63;41.21;97361.44;5093104;28;20046;-44
2023/10/29 09:16:49;;;;;;;3.75;1.10;;;;;;;22.55;41.09;97365.66;5091893;28;20032;-45
2023/10/29 09:19:15;;;;;;;6.53;3.90;;;;;;;22.45;41.54;97377.41;5093269;28;20021;-45
2023/10/29 09:21:41;;;;;;;4.35;1.50;;;;;;;22.32;41.89;97389.03;5093199;28;20030;-45
2023/10/29 09:24:07;;;;;;;2.92;1.08;;;;;;;22.38;42.11;97382.44;5093076;28;20099;-45
2023/10/29 09:26:36;;;;;;;4.03;1.70;;;;;;;22.34;42.28;97370.78;5093076;28;20546;-45
2023/10/29 09:29:02;;;;;;;4.97;1.10;;;;;;;22.45;42.17;97360.59;5091471;28;20033;-45
2023/10/29 09:31:28;;;;;;;3.72;0.93;;;;;;;22.37;42.40;97359.47;5092970;28;20069;-45
2023/10/29 09:33:55;;;;;;;3.38;1.17;;;;;;;22.31;42.33;97350.78;5092878;28;20024;-45
2023/10/29 09:36:21;;;;;;;4.47;1.10;;;;;;;22.25;42.35;97356.59;5092971;28;20053;-45
2023/10/29 09:38:48;;;;;;;6.20;1.05;;;;;;;22.09;43.06;97365.00;5092858;28;20070;-45
2023/10/29 09:41:18;;;;;;;3.03;0.80;;;;;;;22.04;43.01;97367.03;5092777;28;20027;-45
2023/10/29 09:43:44;;;;;;;4.18;1.10;;;;;;;22.18;43.35;97380.28;5092683;28;20027;-45
2023/10/29 09:46:11;;;;;;;7.70;1.30;;;;;;;22.26;42.96;97361.63;5091344;28;20031;-45
2023/10/29 09:48:38;;;;;;;4.70;1.10;;;;;;;22.34;42.89;97363.56;5092668;28;20084;-45
2023/10/29 09:51:06;;;;;;;3.75;1.23;;;;;;;22.23;42.86;97372.91;5092570;28;20027;-45
2023/10/29 09:53:39;;;;;;;3.45;0.95;;;;;;;22.13;43.17;97390.03;5092607;28;20023;-45
2023/10/29 09:56:09;;;;;;;4.45;1.00;;;;;;;22.05;43.07;97369.38;5091516;28;20028;-45
2023/10/29 09:58:36;;;;;;;4.25;0.90;;;;;;;22.02;43.11;97378.00;5092484;28;20099;-45
2023/10/29 10:01:04;;;;;;;4.10;0.95;;;;;;;21.99;43.35;97380.50;5092414;28;20028;-45
2023/10/29 10:03:30;;;;;;;3.95;1.00;;;;;;;21.95;43.88;97356.28;5092664;28;20099;-45
2023/10/29 10:05:57;;;;;;;3.97;1.10;;;;;;;21.94;43.99;97363.50;5092621;28;20052;-45
2023/10/29 10:08:27;;;;;;;3.95;0.90;;;;;;;21.90;43.94;97357.22;5092260;28;20020;-45
2023/10/29 10:10:53;;;;;;;4.55;1.10;;;;;;;21.85;43.72;97357.34;5092260;28;20103;-45
2023/10/29 10:13:35;;;;;;;3.55;1.00;;;;;;;21.85;43.99;97357.34;5090627;28;20017;-45
2023/10/29 10:16:11;;;;;;;2.63;0.82;;;;;;;22.09;43.28;97365.00;5090792;28;20028;-45
2023/10/29 10:18:57;;;;;;;1.52;0.80;;;;;;;22.35;42.19;97367.00;5092125;28;20549;-45
2023/10/29 10:21:43;;;;;;;1.77;0.80;;;;;;;22.54;42.18;97361.41;5092373;28;20058;-45
2023/10/29 10:24:10;;;;;;;2.40;0.90;;;;;;;22.70;40.84;97351.84;5092134;28;20057;-45
2023/10/29 10:26:37;;;;;;;5.28;1.15;;;;;;;22.69;40.94;97344.91;5091989;28;20097;-45
2023/10/29 10:29:05;;;;;;;2.05;0.80;;;;;;;22.54;41.34;97324.75;5092030;28;20020;-45
2023/10/29 10:31:35;;;;;;;5.53;1.20;;;;;;;22.63;40.98;97346.16;5092065;28;20024;-45
2023/10/29 10:34:10;;;;;;;3.78;0.80;;;;;;;22.71;40.67;97340.03;5092298;28;20034;-45
2023/10/29 10:36:37;;;;;;;3.65;0.85;;;;;;;22.72;40.98;97336.28;5091842;28;20390;-45
2023/10/29 10:39:02;;;;;;;5.72;1.80;;;;;;;22.81;40.64;97330.94;5092148;28;20488;-45
2023/10/29 10:41:49;;;;;;;2.67;0.68;;;;;;;23.20;39.82;97323.09;5089945;28;20225;-45
2023/10/29 10:44:17;;;;;;;6.55;2.15;;;;;;;23.49;39.25;97328.56;5091887;28;20539;-45
2023/10/29 10:46:45;;;;;;;3.10;1.20;;;;;;;23.67;38.81;97321.28;5090527;28;20428;-45
2023/10/29 10:49:11;;;;;;;2.05;0.90;;;;;;;23.83;38.75;97343.00;5090472;28;20723;-45
2023/10/29 10:51:39;;;;;;;5.05;1.10;;;;;;;23.88;38.88;97324.06;5090487;28;20470;-45
2023/10/29 10:54:05;;;;;;;3.42;1.08;;;;;;;23.92;38.49;97292.06;5091789;28;20486;-45
2023/10/29 10:56:37;;;;;;;4.57;0.77;;;;;;;24.05;38.07;97307.16;5090333;28;20051;-45
2023/10/29 10:59:07;;;;;;;2.35;0.93;;;;;;;24.06;38.02;97302.56;5091692;28;20036;-45
2023/10/29 11:01:39;;;;;;;4.47;1.20;;;;;;;24.10;38.12;97295.44;5092005;28;20032;-45
2023/10/29 11:04:08;;;;;;;2.13;0.85;;;;;;;24.10;37.68;97284.72;5091658;28;20028;-45
2023/10/29 11:06:38;;;;;;;5.72;1.13;;;;;;;23.95;38.42;97336.22;5091553;28;20506;-45
2023/10/29 11:09:12;;;;;;;6.13;0.95;;;;;;;23.75;38.94;97332.31;5090256;28;20028;-44
2023/10/29 11:11:45;;;;;;;3.70;1.00;;;;;;;23.56;39.01;97306.66;5091663;28;20111;-45
2023/10/29 11:14:18;;;;;;;2.45;1.10;;;;;;;23.48;39.34;97292.19;5091527;28;20052;-45
2023/10/29 11:16:53;;;;;;;4.25;1.10;;;;;;;23.39;39.46;97299.44;5091376;28;20031;-45
2023/10/29 11:19:44;;;;;;;3.72;1.88;;;;;;;23.31;39.88;97305.59;5091529;28;20486;-45
2023/10/29 11:22:20;;;;;;;7.40;1.50;;;;;;;23.15;40.15;97318.69;5091515;28;20028;-45
2023/10/29 11:25:05;;;;;;;6.57;1.10;;;;;;;23.04;40.70;97320.91;5091766;28;20021;-45
2023/10/29 11:27:40;;;;;;;3.75;1.08;;;;;;;23.06;40.70;97310.69;5091721;28;20023;-45
2023/10/29 11:30:13;;;;;;;5.93;0.90;;;;;;;23.22;40.45;97312.84;5091469;28;20016;-45
2023/10/29 11:32:41;;;;;;;4.95;1.83;;;;;;;23.19;40.49;97322.31;5090134;28;20082;-44
2023/10/29 11:35:25;;;;;;;4.22;1.50;;;;;;;23.16;41.16;97351.59;5091242;28;20016;-45